sensor_id;sensor_type;location;lat;lon;timestamp;pressure;altitude;pressure_sealevel;temperature;humidity
18436;BME280;9346;52.006;4.720;2023-03-11T00:01:16;100606.34;;;2.77;100.00
18436;BME280;9346;52.006;4.720;2023-03-11T00:03:43;100610.16;;;2.76;100.00
18436;BME280;9346;52.006;4.720;2023-03-11T00:06:10;100602.00;;;2.76;100.00
18436;BME280;9346;52.006;4.720;2023-03-11T00:08:40;100599.50;;;2.75;100.00
18436;BME280;9346;52.006;4.720;2023-03-11T00:11:08;100606.59;;;2.76;100.00
18436;BME280;9346;52.006;4.720;2023-03-11T00:13:35;100605.75;;;2.75;100.00
18436;BME280;9346;52.006;4.720;2023-03-11T00:16:05;100594.28;;;2.73;100.00
18436;BME280;9346;52.006;4.720;2023-03-11T00:18:32;100601.38;;;2.74;100.00
18436;BME280;9346;52.006;4.720;2023-03-11T00:21:00;100603.25;;;2.74;100.00
18436;BME280;9346;52.006;4.720;2023-03-11T00:23:27;100619.56;;;2.74;100.00
18436;BME280;9346;52.006;4.720;2023-03-11T00:25:56;100618.75;;;2.73;100.00
18436;BME280;9346;52.006;4.720;2023-03-11T00:28:25;100624.66;;;2.70;100.00
18436;BME280;9346;52.006;4.720;2023-03-11T00:30:52;100628.88;;;2.66;100.00
18436;BME280;9346;52.006;4.720;2023-03-11T00:33:19;100641.88;;;2.64;100.00
18436;BME280;9346;52.006;4.720;2023-03-11T00:35:48;100650.03;;;2.64;100.00
18436;BME280;9346;52.006;4.720;2023-03-11T00:38:16;100652.75;;;2.64;100.00
18436;BME280;9346;52.006;4.720;2023-03-11T00:40:45;100646.25;;;2.65;100.00
18436;BME280;9346;52.006;4.720;2023-03-11T00:43:14;100651.91;;;2.64;100.00
18436;BME280;9346;52.006;4.720;2023-03-11T00:45:42;100653.56;;;2.65;100.00
18436;BME280;9346;52.006;4.720;2023-03-11T00:48:10;100655.47;;;2.64;100.00
18436;BME280;9346;52.006;4.720;2023-03-11T00:50:38;100653.34;;;2.66;100.00
18436;BME280;9346;52.006;4.720;2023-03-11T00:53:06;100655.84;;;2.68;100.00
18436;BME280;9346;52.006;4.720;2023-03-11T00:55:34;100656.91;;;2.67;100.00
18436;BME280;9346;52.006;4.720;2023-03-11T00:58:04;100659.63;;;2.67;100.00
18436;BME280;9346;52.006;4.720;2023-03-11T01:00:33;100661.50;;;2.66;100.00
18436;BME280;9346;52.006;4.720;2023-03-11T01:03:00;100652.75;;;2.64;100.00
18436;BME280;9346;52.006;4.720;2023-03-11T01:05:32;100666.34;;;2.64;100.00
18436;BME280;9346;52.006;4.720;2023-03-11T01:08:00;100657.34;;;2.64;100.00
18436;BME280;9346;52.006;4.720;2023-03-11T01:10:31;100658.41;;;2.63;100.00
18436;BME280;9346;52.006;4.720;2023-03-11T01:12:58;100667.41;;;2.63;100.00
18436;BME280;9346;52.006;4.720;2023-03-11T01:15:28;100670.38;;;2.62;100.00
18436;BME280;9346;52.006;4.720;2023-03-11T01:17:57;100665.16;;;2.60;100.00
18436;BME280;9346;52.006;4.720;2023-03-11T01:20:24;100668.91;;;2.59;100.00
18436;BME280;9346;52.006;4.720;2023-03-11T01:22:51;100668.91;;;2.59;100.00
18436;BME280;9346;52.006;4.720;2023-03-11T01:25:19;100673.53;;;2.59;100.00
18436;BME280;9346;52.006;4.720;2023-03-11T01:27:49;100676.03;;;2.60;100.00
18436;BME280;9346;52.006;4.720;2023-03-11T01:30:18;100684.19;;;2.60;100.00
18436;BME280;9346;52.006;4.720;2023-03-11T01:32:46;100680.41;;;2.61;100.00
18436;BME280;9346;52.006;4.720;2023-03-11T01:35:17;100685.84;;;2.61;100.00
18436;BME280;9346;52.006;4.720;2023-03-11T01:37:44;100676.03;;;2.60;100.00
18436;BME280;9346;52.006;4.720;2023-03-11T01:40:14;100682.13;;;2.56;100.00
18436;BME280;9346;52.006;4.720;2023-03-11T01:42:42;100686.75;;;2.55;100.00
18436;BME280;9346;52.006;4.720;2023-03-11T01:45:28;100687.56;;;2.56;100.00
18436;BME280;9346;52.006;4.720;2023-03-11T01:47:56;100685.91;;;2.55;100.00
18436;BME280;9346;52.006;4.720;2023-03-11T01:50:26;100684.25;;;2.54;100.00
18436;BME280;9346;52.006;4.720;2023-03-11T01:52:57;100690.13;;;2.51;100.00
18436;BME280;9346;52.006;4.720;2023-03-11T01:55:24;100694.97;;;2.49;100.00
18436;BME280;9346;52.006;4.720;2023-03-11T01:57:52;100680.53;;;2.48;100.00
18436;BME280;9346;52.006;4.720;2023-03-11T02:00:20;100686.44;;;2.45;100.00
18436;BME280;9346;52.006;4.720;2023-03-11T02:02:50;100691.03;;;2.45;100.00
18436;BME280;9346;52.006;4.720;2023-03-11T02:05:18;100691.88;;;2.45;100.00
18436;BME280;9346;52.006;4.720;2023-03-11T02:07:49;100697.31;;;2.45;100.00
18436;BME280;9346;52.006;4.720;2023-03-11T02:10:17;100688.31;;;2.45;100.00
18436;BME280;9346;52.006;4.720;2023-03-11T02:12:46;100692.72;;;2.46;100.00
18436;BME280;9346;52.006;4.720;2023-03-11T02:15:14;100698.72;;;2.48;100.00
18436;BME280;9346;52.006;4.720;2023-03-11T02:17:42;100692.47;;;2.47;100.00
18436;BME280;9346;52.006;4.720;2023-03-11T02:20:18;100700.63;;;2.47;100.00
18436;BME280;9346;52.006;4.720;2023-03-11T02:22:48;100699.56;;;2.48;100.00
18436;BME280;9346;52.006;4.720;2023-03-11T02:25:26;100703.13;;;2.49;100.00
18436;BME280;9346;52.006;4.720;2023-03-11T02:27:58;100691.88;;;2.45;100.00
18436;BME280;9346;52.006;4.720;2023-03-11T02:30:27;100703.19;;;2.42;100.00
18436;BME280;9346;52.006;4.720;2023-03-11T02:32:55;100694.81;;;2.44;100.00
18436;BME280;9346;52.006;4.720;2023-03-11T02:35:22;100690.22;;;2.44;100.00
18436;BME280;9346;52.006;4.720;2023-03-11T02:37:51;100695.88;;;2.43;100.00
18436;BME280;9346;52.006;4.720;2023-03-11T02:40:38;100685.59;;;2.45;100.00
18436;BME280;9346;52.006;4.720;2023-03-11T02:43:09;100688.97;;;2.40;100.00
18436;BME280;9346;52.006;4.720;2023-03-11T02:45:38;100688.97;;;2.40;100.00
18436;BME280;9346;52.006;4.720;2023-03-11T02:48:07;100692.75;;;2.39;100.00
18436;BME280;9346;52.006;4.720;2023-03-11T02:50:36;100696.31;;;2.40;100.00
18436;BME280;9346;52.006;4.720;2023-03-11T02:53:04;100693.59;;;2.40;100.00
18436;BME280;9346;52.006;4.720;2023-03-11T02:55:32;100697.59;;;2.37;100.00
18436;BME280;9346;52.006;4.720;2023-03-11T02:57:59;100698.06;;;2.34;100.00
18436;BME280;9346;52.006;4.720;2023-03-11T03:00:27;100705.38;;;2.33;100.00
18436;BME280;9346;52.006;4.720;2023-03-11T03:02:54;100711.88;;;2.33;100.00
18436;BME280;9346;52.006;4.720;2023-03-11T03:05:22;100703.31;;;2.29;100.00
18436;BME280;9346;52.006;4.720;2023-03-11T03:07:50;100710.84;;;2.27;100.00
18436;BME280;9346;52.006;4.720;2023-03-11T03:10:18;100713.78;;;2.25;100.00
18436;BME280;9346;52.006;4.720;2023-03-11T03:12:45;100717.81;;;2.23;100.00
18436;BME280;9346;52.006;4.720;2023-03-11T03:15:13;100715.31;;;2.21;100.00
18436;BME280;9346;52.006;4.720;2023-03-11T03:17:42;100722.63;;;2.21;100.00
18436;BME280;9346;52.006;4.720;2023-03-11T03:20:11;100730.19;;;2.19;100.00
18436;BME280;9346;52.006;4.720;2023-03-11T03:22:38;100740.19;;;2.18;100.00
18436;BME280;9346;52.006;4.720;2023-03-11T03:25:07;100747.31;;;2.19;100.00
18436;BME280;9346;52.006;4.720;2023-03-11T03:27:34;100745.41;;;2.20;100.00
18436;BME280;9346;52.006;4.720;2023-03-11T03:30:03;100743.97;;;2.17;100.00
18436;BME280;9346;52.006;4.720;2023-03-11T03:32:30;100748.78;;;2.15;100.00
18436;BME280;9346;52.006;4.720;2023-03-11T03:34:59;100758.00;;;2.14;100.00
18436;BME280;9346;52.006;4.720;2023-03-11T03:37:27;100766.38;;;2.13;100.00
18436;BME280;9346;52.006;4.720;2023-03-11T03:39:54;100760.31;;;2.11;100.00
18436;BME280;9346;52.006;4.720;2023-03-11T03:42:21;100766.81;;;2.10;100.00
18436;BME280;9346;52.006;4.720;2023-03-11T03:44:49;100767.88;;;2.09;100.00
18436;BME280;9346;52.006;4.720;2023-03-11T03:47:17;100761.81;;;2.07;100.00
18436;BME280;9346;52.006;4.720;2023-03-11T03:49:44;100772.09;;;2.05;100.00
18436;BME280;9346;52.006;4.720;2023-03-11T03:52:12;100776.69;;;2.04;100.00
18436;BME280;9346;52.006;4.720;2023-03-11T03:54:39;100778.56;;;2.04;100.00
18436;BME280;9346;52.006;4.720;2023-03-11T03:57:06;100778.34;;;2.05;100.00
18436;BME280;9346;52.006;4.720;2023-03-11T03:59:34;100782.13;;;2.04;100.00
18436;BME280;9346;52.006;4.720;2023-03-11T04:02:01;100784.00;;;2.04;100.00
18436;BME280;9346;52.006;4.720;2023-03-11T04:04:28;100784.22;;;2.02;100.00
18436;BME280;9346;52.006;4.720;2023-03-11T04:06:55;100780.06;;;2.00;100.00
18436;BME280;9346;52.006;4.720;2023-03-11T04:09:24;100780.06;;;2.00;100.00
18436;BME280;9346;52.006;4.720;2023-03-11T04:11:51;100780.06;;;2.00;100.00
18436;BME280;9346;52.006;4.720;2023-03-11T04:14:18;100777.56;;;1.98;100.00
18436;BME280;9346;52.006;4.720;2023-03-11T04:16:45;100778.63;;;1.97;100.00
18436;BME280;9346;52.006;4.720;2023-03-11T04:19:12;100779.66;;;1.96;100.00
18436;BME280;9346;52.006;4.720;2023-03-11T04:21:39;100779.44;;;1.98;100.00
18436;BME280;9346;52.006;4.720;2023-03-11T04:24:06;100775.28;;;1.95;100.00
18436;BME280;9346;52.006;4.720;2023-03-11T04:26:35;100788.47;;;1.92;100.00
18436;BME280;9346;52.006;4.720;2023-03-11T04:29:02;100787.66;;;1.91;100.00
18436;BME280;9346;52.006;4.720;2023-03-11T04:31:29;100780.56;;;1.90;100.00
18436;BME280;9346;52.006;4.720;2023-03-11T04:33:55;100782.66;;;1.88;100.00
18436;BME280;9346;52.006;4.720;2023-03-11T04:36:22;100779.09;;;1.88;100.00
18436;BME280;9346;52.006;4.720;2023-03-11T04:38:49;100783.94;;;1.86;100.00
18436;BME280;9346;52.006;4.720;2023-03-11T04:41:16;100778.72;;;1.84;100.00
18436;BME280;9346;52.006;4.720;2023-03-11T04:43:45;100790.84;;;1.82;100.00
18436;BME280;9346;52.006;4.720;2023-03-11T04:46:12;100792.97;;;1.80;100.00
18436;BME280;9346;52.006;4.720;2023-03-11T04:48:39;100796.91;;;1.77;100.00
18436;BME280;9346;52.006;4.720;2023-03-11T04:51:07;100795.25;;;1.76;100.00
18436;BME280;9346;52.006;4.720;2023-03-11T04:53:34;100800.09;;;1.74;100.00
18436;BME280;9346;52.006;4.720;2023-03-11T04:56:01;100792.16;;;1.73;100.00
18436;BME280;9346;52.006;4.720;2023-03-11T04:58:28;100797.59;;;1.73;100.00
18436;BME280;9346;52.006;4.720;2023-03-11T05:00:57;100796.75;;;1.72;100.00
18436;BME280;9346;52.006;4.720;2023-03-11T05:03:24;100798.63;;;1.72;100.00
18436;BME280;9346;52.006;4.720;2023-03-11T05:05:51;100796.97;;;1.71;100.00
18436;BME280;9346;52.006;4.720;2023-03-11T05:08:21;100801.78;;;1.69;100.00
18436;BME280;9346;52.006;4.720;2023-03-11T05:10:50;100797.63;;;1.66;100.00
18436;BME280;9346;52.006;4.720;2023-03-11T05:13:17;100807.03;;;1.64;100.00
18436;BME280;9346;52.006;4.720;2023-03-11T05:15:44;100812.06;;;1.60;100.00
18436;BME280;9346;52.006;4.720;2023-03-11T05:18:13;100809.56;;;1.59;100.00
18436;BME280;9346;52.006;4.720;2023-03-11T05:20:40;100816.69;;;1.60;100.00
18436;BME280;9346;52.006;4.720;2023-03-11T05:23:07;100807.69;;;1.59;100.00
18436;BME280;9346;52.006;4.720;2023-03-11T05:25:35;100812.53;;;1.51;100.00
18436;BME280;9346;52.006;4.720;2023-03-11T05:28:02;100807.78;;;1.40;100.00
18436;BME280;9346;52.006;4.720;2023-03-11T05:30:29;100816.97;;;1.32;100.00
18436;BME280;9346;52.006;4.720;2023-03-11T05:32:56;100813.03;;;1.28;100.00
18436;BME280;9346;52.006;4.720;2023-03-11T05:35:25;100819.53;;;1.27;100.00
18436;BME280;9346;52.006;4.720;2023-03-11T05:37:52;100826.81;;;1.27;100.00
18436;BME280;9346;52.006;4.720;2023-03-11T05:40:19;100827.44;;;1.29;100.00
18436;BME280;9346;52.006;4.720;2023-03-11T05:42:46;100824.94;;;1.27;100.00
18436;BME280;9346;52.006;4.720;2023-03-11T05:45:14;100833.94;;;1.28;100.00
18436;BME280;9346;52.006;4.720;2023-03-11T05:47:43;100832.47;;;1.25;100.00
18436;BME280;9346;52.006;4.720;2023-03-11T05:50:11;100839.78;;;1.25;100.00
18436;BME280;9346;52.006;4.720;2023-03-11T05:52:39;100839.78;;;1.25;100.00
18436;BME280;9346;52.006;4.720;2023-03-11T05:55:07;100843.31;;;1.25;100.00
18436;BME280;9346;52.006;4.720;2023-03-11T05:57:36;100846.88;;;1.26;100.00
18436;BME280;9346;52.006;4.720;2023-03-11T06:00:04;100837.06;;;1.25;100.00
18436;BME280;9346;52.006;4.720;2023-03-11T06:02:36;100846.88;;;1.26;100.00
18436;BME280;9346;52.006;4.720;2023-03-11T06:05:04;100852.50;;;1.24;100.00
18436;BME280;9346;52.006;4.720;2023-03-11T06:07:32;100849.38;;;1.21;100.00
18436;BME280;9346;52.006;4.720;2023-03-11T06:10:02;100854.19;;;1.19;100.00
18436;BME280;9346;52.006;4.720;2023-03-11T06:12:29;100860.66;;;1.18;100.00
18436;BME280;9346;52.006;4.720;2023-03-11T06:14:56;100862.75;;;1.16;100.00
18436;BME280;9346;52.006;4.720;2023-03-11T06:17:23;100869.25;;;1.15;100.00
18436;BME280;9346;52.006;4.720;2023-03-11T06:19:50;100872.97;;;1.14;100.00
18436;BME280;9346;52.006;4.720;2023-03-11T06:22:17;100875.09;;;1.12;100.00
18436;BME280;9346;52.006;4.720;2023-03-11T06:24:44;100880.94;;;1.09;100.00
18436;BME280;9346;52.006;4.720;2023-03-11T06:27:12;100881.16;;;1.07;100.00
18436;BME280;9346;52.006;4.720;2023-03-11T06:29:40;100881.97;;;1.08;100.00
18436;BME280;9346;52.006;4.720;2023-03-11T06:32:06;100881.97;;;1.08;100.00
18436;BME280;9346;52.006;4.720;2023-03-11T06:34:34;100877.81;;;1.05;100.00
18436;BME280;9346;52.006;4.720;2023-03-11T06:37:01;100893.22;;;1.05;100.00
18436;BME280;9346;52.006;4.720;2023-03-11T06:39:28;100882.84;;;1.02;100.00
18436;BME280;9346;52.006;4.720;2023-03-11T06:41:55;100885.75;;;1.00;100.00
18436;BME280;9346;52.006;4.720;2023-03-11T06:44:25;100897.41;;;1.01;100.00
18436;BME280;9346;52.006;4.720;2023-03-11T06:46:51;100899.13;;;1.02;100.00
18436;BME280;9346;52.006;4.720;2023-03-11T06:49:19;100905.13;;;1.04;100.00
18436;BME280;9346;52.006;4.720;2023-03-11T06:51:45;100907.84;;;1.04;100.00
18436;BME280;9346;52.006;4.720;2023-03-11T06:54:12;100903.28;;;1.04;100.00
18436;BME280;9346;52.006;4.720;2023-03-11T06:56:39;100915.38;;;1.02;100.00
18436;BME280;9346;52.006;4.720;2023-03-11T06:59:06;100912.69;;;1.02;100.00
18436;BME280;9346;52.006;4.720;2023-03-11T07:01:35;100913.91;;;0.99;100.00
18436;BME280;9346;52.006;4.720;2023-03-11T07:04:02;100918.50;;;0.99;100.00
18436;BME280;9346;52.006;4.720;2023-03-11T07:06:29;100921.22;;;0.99;100.00
18436;BME280;9346;52.006;4.720;2023-03-11T07:08:57;100926.88;;;0.97;100.00
18436;BME280;9346;52.006;4.720;2023-03-11T07:11:25;100925.81;;;0.98;100.00
18436;BME280;9346;52.006;4.720;2023-03-11T07:13:53;100926.22;;;1.02;100.00
18436;BME280;9346;52.006;4.720;2023-03-11T07:16:21;100924.53;;;1.01;100.00
18436;BME280;9346;52.006;4.720;2023-03-11T07:18:51;100932.28;;;0.97;100.00
18436;BME280;9346;52.006;4.720;2023-03-11T07:21:22;100937.28;;;0.94;100.00
18436;BME280;9346;52.006;4.720;2023-03-11T07:23:52;100940.41;;;0.91;100.00
18436;BME280;9346;52.006;4.720;2023-03-11T07:26:19;100941.03;;;0.86;100.00
18436;BME280;9346;52.006;4.720;2023-03-11T07:28:47;100951.06;;;0.86;100.00
18436;BME280;9346;52.006;4.720;2023-03-11T07:31:16;100952.53;;;0.88;100.00
18436;BME280;9346;52.006;4.720;2023-03-11T07:33:44;100956.25;;;0.94;100.00
18436;BME280;9346;52.006;4.720;2023-03-11T07:36:14;100955.44;;;1.00;100.00
18436;BME280;9346;52.006;4.720;2023-03-11T07:38:42;100956.69;;;1.04;100.00
18436;BME280;9346;52.006;4.720;2023-03-11T07:41:10;100957.09;;;1.07;100.00
18436;BME280;9346;52.006;4.720;2023-03-11T07:43:39;100957.72;;;1.09;100.00
18436;BME280;9346;52.006;4.720;2023-03-11T07:46:09;100960.84;;;1.13;100.00
18436;BME280;9346;52.006;4.720;2023-03-11T07:48:37;100966.91;;;1.15;100.00
18436;BME280;9346;52.006;4.720;2023-03-11T07:51:06;100958.31;;;1.18;100.00
18436;BME280;9346;52.006;4.720;2023-03-11T07:53:35;100964.38;;;1.20;100.00
18436;BME280;9346;52.006;4.720;2023-03-11T07:56:08;100968.75;;;1.27;100.00
18436;BME280;9346;52.006;4.720;2023-03-11T07:58:36;100975.44;;;1.31;100.00
18436;BME280;9346;52.006;4.720;2023-03-11T08:01:04;100981.69;;;1.38;100.00
18436;BME280;9346;52.006;4.720;2023-03-11T08:03:32;100978.75;;;1.46;100.00
18436;BME280;9346;52.006;4.720;2023-03-11T08:05:59;100986.88;;;1.53;100.00
18436;BME280;9346;52.006;4.720;2023-03-11T08:08:26;100984.38;;;1.58;100.00
18436;BME280;9346;52.006;4.720;2023-03-11T08:10:55;100984.75;;;1.61;100.00
18436;BME280;9346;52.006;4.720;2023-03-11T08:13:22;100993.13;;;1.66;100.00
18436;BME280;9346;52.006;4.720;2023-03-11T08:15:49;100989.75;;;1.71;100.00
18436;BME280;9346;52.006;4.720;2023-03-11T08:18:16;101000.84;;;1.76;100.00
18436;BME280;9346;52.006;4.720;2023-03-11T08:20:43;100997.88;;;1.84;100.00
18436;BME280;9346;52.006;4.720;2023-03-11T08:23:10;101000.78;;;1.89;100.00
18436;BME280;9346;52.006;4.720;2023-03-11T08:25:38;101003.69;;;1.94;100.00
18436;BME280;9346;52.006;4.720;2023-03-11T08:28:08;101011.41;;;1.97;100.00
18436;BME280;9346;52.006;4.720;2023-03-11T08:30:37;100999.06;;;2.01;100.00
18436;BME280;9346;52.006;4.720;2023-03-11T08:33:04;101007.41;;;2.06;100.00
18436;BME280;9346;52.006;4.720;2023-03-11T08:35:32;101004.88;;;2.11;100.00
18436;BME280;9346;52.006;4.720;2023-03-11T08:37:59;101006.72;;;2.17;100.00
18436;BME280;9346;52.006;4.720;2023-03-11T08:40:26;101012.38;;;2.22;100.00
18436;BME280;9346;52.006;4.720;2023-03-11T08:42:54;101006.88;;;2.28;100.00
18436;BME280;9346;52.006;4.720;2023-03-11T08:45:23;101016.09;;;2.34;100.00
18436;BME280;9346;52.006;4.720;2023-03-11T08:47:49;101010.81;;;2.39;100.00
18436;BME280;9346;52.006;4.720;2023-03-11T08:50:17;101015.38;;;2.45;100.00
18436;BME280;9346;52.006;4.720;2023-03-11T08:52:45;101025.81;;;2.48;100.00
18436;BME280;9346;52.006;4.720;2023-03-11T08:55:16;101032.28;;;2.54;100.00
18436;BME280;9346;52.006;4.720;2023-03-11T08:57:49;101035.41;;;2.57;100.00
18436;BME280;9346;52.006;4.720;2023-03-11T09:00:17;101022.81;;;2.63;100.00
18436;BME280;9346;52.006;4.720;2023-03-11T09:02:46;101020.03;;;2.69;100.00
18436;BME280;9346;52.006;4.720;2023-03-11T09:05:13;101028.38;;;2.74;100.00
18436;BME280;9346;52.006;4.720;2023-03-11T09:07:40;101032.34;;;2.78;100.00
18436;BME280;9346;52.006;4.720;2023-03-11T09:10:09;101030.63;;;2.84;100.00
18436;BME280;9346;52.006;4.720;2023-03-11T09:12:37;101034.59;;;2.88;100.00
18436;BME280;9346;52.006;4.720;2023-03-11T09:15:04;101038.31;;;2.93;100.00
18436;BME280;9346;52.006;4.720;2023-03-11T09:17:31;101042.88;;;2.99;100.00
18436;BME280;9346;52.006;4.720;2023-03-11T09:20:00;101039.66;;;3.09;100.00
18436;BME280;9346;52.006;4.720;2023-03-11T09:22:27;101034.78;;;3.17;100.00
18436;BME280;9346;52.006;4.720;2023-03-11T09:24:55;101036.38;;;3.25;100.00
18436;BME280;9346;52.006;4.720;2023-03-11T09:27:23;101036.56;;;3.30;100.00
18436;BME280;9346;52.006;4.720;2023-03-11T09:29:50;101025.03;;;3.34;100.00
18436;BME280;9346;52.006;4.720;2023-03-11T09:32:16;101034.09;;;3.46;100.00
18436;BME280;9346;52.006;4.720;2023-03-11T09:34:43;101030.81;;;3.62;100.00
18436;BME280;9346;52.006;4.720;2023-03-11T09:37:12;101028.41;;;3.72;100.00
18436;BME280;9346;52.006;4.720;2023-03-11T09:39:39;101035.53;;;3.73;100.00
18436;BME280;9346;52.006;4.720;2023-03-11T09:42:14;101035.91;;;3.77;100.00
18436;BME280;9346;52.006;4.720;2023-03-11T09:44:45;101034.66;;;3.79;100.00
18436;BME280;9346;52.006;4.720;2023-03-11T09:47:29;101040.84;;;3.86;100.00
18436;BME280;9346;52.006;4.720;2023-03-11T09:50:25;101033.25;;;3.88;100.00
18436;BME280;9346;52.006;4.720;2023-03-11T09:53:02;101040.31;;;3.96;100.00
18436;BME280;9346;52.006;4.720;2023-03-11T09:55:40;101050.94;;;4.04;100.00
18436;BME280;9346;52.006;4.720;2023-03-11T09:58:14;101044.94;;;4.13;100.00
18436;BME280;9346;52.006;4.720;2023-03-11T10:00:43;101048.41;;;4.20;100.00
18436;BME280;9346;52.006;4.720;2023-03-11T10:03:20;101046.31;;;4.22;100.00
18436;BME280;9346;52.006;4.720;2023-03-11T10:05:51;101051.13;;;4.20;100.00
18436;BME280;9346;52.006;4.720;2023-03-11T10:08:27;101046.31;;;4.22;100.00
18436;BME280;9346;52.006;4.720;2023-03-11T10:11:00;101049.78;;;4.29;100.00
18436;BME280;9346;52.006;4.720;2023-03-11T10:13:35;101041.91;;;4.39;100.00
18436;BME280;9346;52.006;4.720;2023-03-11T10:16:11;101039.69;;;4.48;100.00
18436;BME280;9346;52.006;4.720;2023-03-11T10:18:48;101034.16;;;4.54;100.00
18436;BME280;9346;52.006;4.720;2023-03-11T10:21:28;101041.25;;;4.55;100.00
18436;BME280;9346;52.006;4.720;2023-03-11T10:24:10;101036.31;;;4.64;100.00
18436;BME280;9346;52.006;4.720;2023-03-11T10:26:41;101027.25;;;4.82;100.00
18436;BME280;9346;52.006;4.720;2023-03-11T10:29:15;101025.88;;;4.91;100.00
18436;BME280;9346;52.006;4.720;2023-03-11T10:31:48;101028.50;;;4.97;100.00
18436;BME280;9346;52.006;4.720;2023-03-11T10:34:21;101030.41;;;4.97;100.00
18436;BME280;9346;52.006;4.720;2023-03-11T10:36:54;101035.00;;;4.96;100.00
18436;BME280;9346;52.006;4.720;2023-03-11T10:39:31;101033.13;;;4.97;100.00
18436;BME280;9346;52.006;4.720;2023-03-11T10:42:00;101038.59;;;4.97;100.00
18436;BME280;9346;52.006;4.720;2023-03-11T10:44:31;101038.94;;;5.00;100.00
18436;BME280;9346;52.006;4.720;2023-03-11T10:47:00;101035.97;;;5.02;100.00
18436;BME280;9346;52.006;4.720;2023-03-11T10:49:28;101040.38;;;5.03;100.00
18436;BME280;9346;52.006;4.720;2023-03-11T10:51:55;101039.06;;;5.05;100.00
18436;BME280;9346;52.006;4.720;2023-03-11T10:54:28;101045.66;;;5.16;100.00
18436;BME280;9346;52.006;4.720;2023-03-11T10:56:57;101054.56;;;5.23;100.00
18436;BME280;9346;52.006;4.720;2023-03-11T10:59:28;101051.81;;;5.23;100.00
18436;BME280;9346;52.006;4.720;2023-03-11T11:01:58;101055.41;;;5.23;100.00
18436;BME280;9346;52.006;4.720;2023-03-11T11:04:29;101049.09;;;5.23;100.00
18436;BME280;9346;52.006;4.720;2023-03-11T11:06:56;101058.84;;;5.30;100.00
18436;BME280;9346;52.006;4.720;2023-03-11T11:09:25;101059.94;;;5.41;100.00
18436;BME280;9346;52.006;4.720;2023-03-11T11:12:08;101050.78;;;5.47;100.00
18436;BME280;9346;52.006;4.720;2023-03-11T11:14:42;101043.44;;;5.59;100.00
18436;BME280;9346;52.006;4.720;2023-03-11T11:17:20;101054.97;;;5.61;100.00
18436;BME280;9346;52.006;4.720;2023-03-11T11:19:50;101064.59;;;5.63;100.00
18436;BME280;9346;52.006;4.720;2023-03-11T11:22:19;101064.34;;;5.65;100.00
18436;BME280;9346;52.006;4.720;2023-03-11T11:24:48;101062.34;;;5.72;100.00
18436;BME280;9346;52.006;4.720;2023-03-11T11:27:20;101064.59;;;5.75;100.00
18436;BME280;9346;52.006;4.720;2023-03-11T11:30:04;101059.03;;;5.70;100.00
18436;BME280;9346;52.006;4.720;2023-03-11T11:32:36;101058.94;;;5.88;100.00
18436;BME280;9346;52.006;4.720;2023-03-11T11:35:05;101056.44;;;5.86;100.00
18436;BME280;9346;52.006;4.720;2023-03-11T11:37:34;101052.88;;;5.86;100.00
18436;BME280;9346;52.006;4.720;2023-03-11T11:40:05;101059.63;;;5.95;100.00
18436;BME280;9346;52.006;4.720;2023-03-11T11:42:43;101050.25;;;5.91;100.00
18436;BME280;9346;52.006;4.720;2023-03-11T11:45:13;101054.06;;;5.90;100.00
18436;BME280;9346;52.006;4.720;2023-03-11T11:47:43;101055.34;;;5.87;100.00
18436;BME280;9346;52.006;4.720;2023-03-11T11:50:17;101054.78;;;5.97;100.00
18436;BME280;9346;52.006;4.720;2023-03-11T11:52:50;101056.41;;;5.98;100.00
18436;BME280;9346;52.006;4.720;2023-03-11T11:55:21;101052.41;;;6.00;100.00
18436;BME280;9346;52.006;4.720;2023-03-11T11:57:51;101046.09;;;6.00;100.00
18436;BME280;9346;52.006;4.720;2023-03-11T12:00:21;101039.44;;;6.07;100.00
18436;BME280;9346;52.006;4.720;2023-03-11T12:03:06;101043.34;;;6.11;100.00
18436;BME280;9346;52.006;4.720;2023-03-11T12:05:42;101043.34;;;6.11;100.00
18436;BME280;9346;52.006;4.720;2023-03-11T12:08:16;101045.22;;;6.22;100.00
18436;BME280;9346;52.006;4.720;2023-03-11T12:10:53;101040.94;;;6.26;100.00
18436;BME280;9346;52.006;4.720;2023-03-11T12:13:43;101037.72;;;6.29;100.00
18436;BME280;9346;52.006;4.720;2023-03-11T12:16:19;101039.03;;;6.27;100.00
18436;BME280;9346;52.006;4.720;2023-03-11T12:18:52;101031.03;;;6.37;100.00
18436;BME280;9346;52.006;4.720;2023-03-11T12:21:30;101037.69;;;6.41;100.00
18436;BME280;9346;52.006;4.720;2023-03-11T12:24:16;101041.69;;;6.50;100.00
18436;BME280;9346;52.006;4.720;2023-03-11T12:26:46;101040.03;;;6.49;100.00
18436;BME280;9346;52.006;4.720;2023-03-11T12:29:22;101044.66;;;6.48;100.00
18436;BME280;9346;52.006;4.720;2023-03-11T12:31:52;101038.47;;;6.53;100.00
18436;BME280;9346;52.006;4.720;2023-03-11T12:34:23;101034.69;;;6.54;100.00
18436;BME280;9346;52.006;4.720;2023-03-11T12:36:51;101032.50;;;6.56;100.00
18436;BME280;9346;52.006;4.720;2023-03-11T12:39:21;101037.50;;;6.59;100.00
18436;BME280;9346;52.006;4.720;2023-03-11T12:42:13;101033.69;;;6.60;100.00
18436;BME280;9346;52.006;4.720;2023-03-11T12:44:43;101038.44;;;6.64;100.00
18436;BME280;9346;52.006;4.720;2023-03-11T12:47:28;101047.88;;;6.57;100.00
18436;BME280;9346;52.006;4.720;2023-03-11T12:53:02;101037.53;;;6.47;100.00
18436;BME280;9346;52.006;4.720;2023-03-11T12:55:33;101042.88;;;6.54;100.00
18436;BME280;9346;52.006;4.720;2023-03-11T12:58:31;101045.88;;;6.52;100.00
18436;BME280;9346;52.006;4.720;2023-03-11T13:01:25;101041.13;;;6.48;100.00
18436;BME280;9346;52.006;4.720;2023-03-11T13:04:10;101036.34;;;6.55;100.00
18436;BME280;9346;52.006;4.720;2023-03-11T13:10:13;101041.63;;;6.73;100.00
18436;BME280;9346;52.006;4.720;2023-03-11T13:12:43;101027.94;;;6.73;100.00
18436;BME280;9346;52.006;4.720;2023-03-11T13:15:33;101033.41;;;6.73;100.00
18436;BME280;9346;52.006;4.720;2023-03-11T13:18:12;101038.19;;;6.66;100.00
18436;BME280;9346;52.006;4.720;2023-03-11T13:20:51;101039.50;;;6.63;100.00